sensor_id;sensor_type;location;lat;lon;timestamp;pressure;altitude;pressure_sealevel;temperature;humidity
77975;BME280;67164;51.202;0.278;2023-03-16T00:00:23;100893.07;;;23.00;36.76
77975;BME280;67164;51.202;0.278;2023-03-16T00:02:49;100890.40;;;23.08;36.60
77975;BME280;67164;51.202;0.278;2023-03-16T00:05:15;100881.05;;;23.11;36.59
77975;BME280;67164;51.202;0.278;2023-03-16T00:07:41;100877.13;;;23.15;36.56
77975;BME280;67164;51.202;0.278;2023-03-16T00:10:07;100873.52;;;23.19;36.53
77975;BME280;67164;51.202;0.278;2023-03-16T00:12:32;100869.54;;;22.99;36.44
77975;BME280;67164;51.202;0.278;2023-03-16T00:14:58;100874.91;;;23.24;36.36
77975;BME280;67164;51.202;0.278;2023-03-16T00:17:23;100875.96;;;23.26;36.29
77975;BME280;67164;51.202;0.278;2023-03-16T00:19:51;100869.53;;;23.52;36.24
77975;BME280;67164;51.202;0.278;2023-03-16T00:22:16;100871.66;;;23.24;36.23
77975;BME280;67164;51.202;0.278;2023-03-16T00:24:42;100864.84;;;22.94;36.17
77975;BME280;67164;51.202;0.278;2023-03-16T00:27:07;100869.79;;;23.18;36.06
77975;BME280;67164;51.202;0.278;2023-03-16T00:29:32;100864.42;;;23.15;36.12
77975;BME280;67164;51.202;0.278;2023-03-16T00:31:58;100864.34;;;23.15;36.06
77975;BME280;67164;51.202;0.278;2023-03-16T00:34:24;100860.98;;;23.15;36.06
77975;BME280;67164;51.202;0.278;2023-03-16T00:36:50;100854.27;;;23.10;36.04
77975;BME280;67164;51.202;0.278;2023-03-16T00:39:16;100848.27;;;23.09;36.03
77975;BME280;67164;51.202;0.278;2023-03-16T00:41:42;100845.65;;;23.29;36.02
77975;BME280;67164;51.202;0.278;2023-03-16T00:44:07;100845.23;;;23.05;36.03
77975;BME280;67164;51.202;0.278;2023-03-16T00:46:33;100848.89;;;23.09;35.92
77975;BME280;67164;51.202;0.278;2023-03-16T00:48:59;100844.56;;;23.07;35.93
77975;BME280;67164;51.202;0.278;2023-03-16T00:51:25;100839.22;;;22.76;35.92
77975;BME280;67164;51.202;0.278;2023-03-16T00:53:51;100837.52;;;22.94;35.97
77975;BME280;67164;51.202;0.278;2023-03-16T00:56:17;100838.71;;;22.87;36.00
77975;BME280;67164;51.202;0.278;2023-03-16T00:58:42;100836.58;;;22.81;36.00
77975;BME280;67164;51.202;0.278;2023-03-16T01:01:11;100828.60;;;23.03;36.03
77975;BME280;67164;51.202;0.278;2023-03-16T01:03:34;100827.30;;;22.77;35.97
77975;BME280;67164;51.202;0.278;2023-03-16T01:06:03;100824.43;;;22.75;35.98
77975;BME280;67164;51.202;0.278;2023-03-16T01:08:26;100817.24;;;22.93;36.03
77975;BME280;67164;51.202;0.278;2023-03-16T01:10:51;100807.85;;;22.62;36.04
77975;BME280;67164;51.202;0.278;2023-03-16T01:13:17;100797.57;;;22.37;36.06
77975;BME280;67164;51.202;0.278;2023-03-16T01:15:43;100797.98;;;22.81;36.00
77975;BME280;67164;51.202;0.278;2023-03-16T01:18:09;100789.99;;;22.77;36.02
77975;BME280;67164;51.202;0.278;2023-03-16T01:20:35;100787.18;;;22.50;36.00
77975;BME280;67164;51.202;0.278;2023-03-16T01:23:01;100782.87;;;22.75;35.96
77975;BME280;67164;51.202;0.278;2023-03-16T01:25:26;100780.94;;;22.47;35.98
77975;BME280;67164;51.202;0.278;2023-03-16T01:27:52;100771.97;;;22.63;35.99
77975;BME280;67164;51.202;0.278;2023-03-16T01:30:18;100764.63;;;22.43;35.97
77975;BME280;67164;51.202;0.278;2023-03-16T01:32:44;100766.11;;;22.66;36.00
77975;BME280;67164;51.202;0.278;2023-03-16T01:35:10;100761.23;;;22.37;36.01
77975;BME280;67164;51.202;0.278;2023-03-16T01:37:36;100760.03;;;22.59;35.99
77975;BME280;67164;51.202;0.278;2023-03-16T01:40:02;100750.54;;;22.82;36.01
77975;BME280;67164;51.202;0.278;2023-03-16T01:42:27;100757.71;;;22.81;35.99
77975;BME280;67164;51.202;0.278;2023-03-16T01:44:55;100753.54;;;22.54;36.00
77975;BME280;67164;51.202;0.278;2023-03-16T01:47:19;100750.84;;;22.25;36.02
77975;BME280;67164;51.202;0.278;2023-03-16T01:49:45;100742.60;;;22.48;36.03
77975;BME280;67164;51.202;0.278;2023-03-16T01:52:13;100739.82;;;22.48;36.02
77975;BME280;67164;51.202;0.278;2023-03-16T01:54:40;100736.07;;;22.46;36.00
77975;BME280;67164;51.202;0.278;2023-03-16T01:57:06;100734.75;;;22.42;36.01
77975;BME280;67164;51.202;0.278;2023-03-16T01:59:32;100726.68;;;22.45;35.98
77975;BME280;67164;51.202;0.278;2023-03-16T02:01:54;100730.15;;;22.65;35.97
77975;BME280;67164;51.202;0.278;2023-03-16T02:04:28;100718.50;;;22.37;35.98
77975;BME280;67164;51.202;0.278;2023-03-16T02:06:46;100716.76;;;22.63;35.97
77975;BME280;67164;51.202;0.278;2023-03-16T02:09:11;100718.34;;;22.57;36.03
77975;BME280;67164;51.202;0.278;2023-03-16T02:11:37;100716.19;;;22.31;36.03
77975;BME280;67164;51.202;0.278;2023-03-16T02:14:08;100715.80;;;22.54;36.01
77975;BME280;67164;51.202;0.278;2023-03-16T02:16:29;100706.80;;;22.26;36.05
77975;BME280;67164;51.202;0.278;2023-03-16T02:18:54;100699.90;;;22.47;36.05
77975;BME280;67164;51.202;0.278;2023-03-16T02:21:25;100696.79;;;22.22;36.07
77975;BME280;67164;51.202;0.278;2023-03-16T02:23:47;100696.45;;;22.20;36.08
77975;BME280;67164;51.202;0.278;2023-03-16T02:26:18;100690.40;;;22.43;36.07
77975;BME280;67164;51.202;0.278;2023-03-16T02:28:44;100686.42;;;22.42;36.06
77975;BME280;67164;51.202;0.278;2023-03-16T02:31:04;100685.36;;;22.18;36.05
77975;BME280;67164;51.202;0.278;2023-03-16T02:33:30;100682.74;;;22.43;36.03
77975;BME280;67164;51.202;0.278;2023-03-16T02:35:55;100678.94;;;22.14;36.06
77975;BME280;67164;51.202;0.278;2023-03-16T02:38:21;100670.44;;;22.36;36.09
77975;BME280;67164;51.202;0.278;2023-03-16T02:40:54;100673.16;;;22.31;36.09
77975;BME280;67164;51.202;0.278;2023-03-16T02:43:18;100672.62;;;22.32;36.10
77975;BME280;67164;51.202;0.278;2023-03-16T02:45:42;100668.17;;;22.08;36.09
77975;BME280;67164;51.202;0.278;2023-03-16T02:48:08;100666.75;;;22.06;36.10
77975;BME280;67164;51.202;0.278;2023-03-16T02:50:30;100651.62;;;22.06;36.10
77975;BME280;67164;51.202;0.278;2023-03-16T02:52:56;100650.08;;;21.99;36.13
77975;BME280;67164;51.202;0.278;2023-03-16T02:55:22;100649.80;;;22.22;36.13
77975;BME280;67164;51.202;0.278;2023-03-16T02:57:47;100645.90;;;21.96;36.16
77975;BME280;67164;51.202;0.278;2023-03-16T03:00:14;100638.54;;;22.14;36.23
77975;BME280;67164;51.202;0.278;2023-03-16T03:02:39;100636.87;;;21.87;36.24
77975;BME280;67164;51.202;0.278;2023-03-16T03:05:05;100635.46;;;22.11;36.21
77975;BME280;67164;51.202;0.278;2023-03-16T03:07:31;100632.74;;;22.12;36.21
77975;BME280;67164;51.202;0.278;2023-03-16T03:09:56;100633.55;;;22.10;36.23
77975;BME280;67164;51.202;0.278;2023-03-16T03:12:22;100636.54;;;22.27;36.29
77975;BME280;67164;51.202;0.278;2023-03-16T03:14:48;100633.40;;;22.05;36.28
77975;BME280;67164;51.202;0.278;2023-03-16T03:17:14;100634.70;;;22.03;36.30
77975;BME280;67164;51.202;0.278;2023-03-16T03:19:40;100630.09;;;22.03;36.27
77975;BME280;67164;51.202;0.278;2023-03-16T03:22:06;100632.28;;;22.03;36.26
77975;BME280;67164;51.202;0.278;2023-03-16T03:24:32;100630.29;;;21.97;36.32
77975;BME280;67164;51.202;0.278;2023-03-16T03:26:57;100617.81;;;21.98;36.32
77975;BME280;67164;51.202;0.278;2023-03-16T03:29:23;100612.20;;;21.73;36.30
77975;BME280;67164;51.202;0.278;2023-03-16T03:31:49;100613.50;;;22.04;36.23
77975;BME280;67164;51.202;0.278;2023-03-16T03:34:15;100609.06;;;22.06;36.20
77975;BME280;67164;51.202;0.278;2023-03-16T03:36:40;100604.10;;;22.05;36.13
77975;BME280;67164;51.202;0.278;2023-03-16T03:39:07;100604.23;;;22.23;36.22
77975;BME280;67164;51.202;0.278;2023-03-16T03:41:32;100599.17;;;21.93;36.28
77975;BME280;67164;51.202;0.278;2023-03-16T03:43:58;100598.92;;;21.91;36.31
77975;BME280;67164;51.202;0.278;2023-03-16T03:46:24;100593.94;;;21.67;36.33
77975;BME280;67164;51.202;0.278;2023-03-16T03:48:49;100589.64;;;21.90;36.29
77975;BME280;67164;51.202;0.278;2023-03-16T03:51:16;100586.87;;;21.88;36.31
77975;BME280;67164;51.202;0.278;2023-03-16T03:53:41;100590.87;;;21.85;36.35
77975;BME280;67164;51.202;0.278;2023-03-16T03:56:07;100588.06;;;22.06;36.39
77975;BME280;67164;51.202;0.278;2023-03-16T03:58:33;100585.33;;;21.72;36.47
77975;BME280;67164;51.202;0.278;2023-03-16T04:00:58;100583.86;;;21.76;36.45
77975;BME280;67164;51.202;0.278;2023-03-16T04:03:24;100585.88;;;21.50;36.45
77975;BME280;67164;51.202;0.278;2023-03-16T04:05:50;100583.64;;;21.72;36.48
77975;BME280;67164;51.202;0.278;2023-03-16T04:08:16;100589.91;;;21.71;36.49
77975;BME280;67164;51.202;0.278;2023-03-16T04:10:42;100589.94;;;21.67;36.53
77975;BME280;67164;51.202;0.278;2023-03-16T04:13:08;100589.48;;;21.76;36.43
77975;BME280;67164;51.202;0.278;2023-03-16T04:15:33;100582.13;;;21.67;36.53
77975;BME280;67164;51.202;0.278;2023-03-16T04:17:59;100573.19;;;21.68;36.49
77975;BME280;67164;51.202;0.278;2023-03-16T04:20:25;100567.92;;;21.66;36.52
77975;BME280;67164;51.202;0.278;2023-03-16T04:22:51;100570.45;;;21.66;36.52
77975;BME280;67164;51.202;0.278;2023-03-16T04:25:17;100576.38;;;21.36;36.58
77975;BME280;67164;51.202;0.278;2023-03-16T04:27:43;100579.79;;;21.61;36.56
77975;BME280;67164;51.202;0.278;2023-03-16T04:30:11;100576.78;;;21.85;36.57
77975;BME280;67164;51.202;0.278;2023-03-16T04:32:34;100575.79;;;21.63;36.53
77975;BME280;67164;51.202;0.278;2023-03-16T04:35:00;100573.77;;;21.60;36.55
77975;BME280;67164;51.202;0.278;2023-03-16T04:37:26;100575.89;;;21.57;36.59
77975;BME280;67164;51.202;0.278;2023-03-16T04:39:52;100578.41;;;21.60;36.54
77975;BME280;67164;51.202;0.278;2023-03-16T04:42:18;100581.13;;;21.56;36.60
77975;BME280;67164;51.202;0.278;2023-03-16T04:44:43;100577.22;;;21.77;36.64
77975;BME280;67164;51.202;0.278;2023-03-16T04:47:09;100578.40;;;21.51;36.67
77975;BME280;67164;51.202;0.278;2023-03-16T04:49:35;100579.84;;;21.52;36.69
77975;BME280;67164;51.202;0.278;2023-03-16T04:52:01;100575.80;;;21.73;36.72
77975;BME280;67164;51.202;0.278;2023-03-16T04:54:27;100575.38;;;21.49;36.71
77975;BME280;67164;51.202;0.278;2023-03-16T04:56:53;100576.12;;;21.47;36.73
77975;BME280;67164;51.202;0.278;2023-03-16T04:59:18;100578.52;;;21.45;36.74
77975;BME280;67164;51.202;0.278;2023-03-16T05:01:44;100574.33;;;21.68;36.78
77975;BME280;67164;51.202;0.278;2023-03-16T05:04:10;100570.93;;;21.90;36.78
77975;BME280;67164;51.202;0.278;2023-03-16T05:06:36;100565.25;;;21.60;36.84
77975;BME280;67164;51.202;0.278;2023-03-16T05:09:03;100565.32;;;21.59;36.84
77975;BME280;67164;51.202;0.278;2023-03-16T05:11:27;100564.08;;;21.36;36.85
77975;BME280;67164;51.202;0.278;2023-03-16T05:13:53;100564.73;;;21.59;36.85
77975;BME280;67164;51.202;0.278;2023-03-16T05:16:19;100561.45;;;21.34;36.88
77975;BME280;67164;51.202;0.278;2023-03-16T05:18:45;100562.78;;;21.81;36.94
77975;BME280;67164;51.202;0.278;2023-03-16T05:21:11;100566.76;;;21.57;36.87
77975;BME280;67164;51.202;0.278;2023-03-16T05:23:37;100564.75;;;21.36;36.91
77975;BME280;67164;51.202;0.278;2023-03-16T05:26:03;100567.16;;;21.65;36.86
77975;BME280;67164;51.202;0.278;2023-03-16T05:28:28;100565.67;;;21.35;36.91
77975;BME280;67164;51.202;0.278;2023-03-16T05:30:54;100561.29;;;21.80;36.95
77975;BME280;67164;51.202;0.278;2023-03-16T05:33:20;100556.22;;;21.56;36.91
77975;BME280;67164;51.202;0.278;2023-03-16T05:35:46;100550.04;;;21.74;37.00
77975;BME280;67164;51.202;0.278;2023-03-16T05:38:12;100539.80;;;21.56;36.98
77975;BME280;67164;51.202;0.278;2023-03-16T05:40:38;100546.62;;;21.46;37.07
77975;BME280;67164;51.202;0.278;2023-03-16T05:43:03;100540.92;;;21.22;37.02
77975;BME280;67164;51.202;0.278;2023-03-16T05:45:29;100540.19;;;21.21;37.07
77975;BME280;67164;51.202;0.278;2023-03-16T05:47:55;100541.14;;;21.16;37.12
77975;BME280;67164;51.202;0.278;2023-03-16T05:50:21;100541.51;;;21.43;37.13
77975;BME280;67164;51.202;0.278;2023-03-16T05:52:47;100537.02;;;21.40;37.12
77975;BME280;67164;51.202;0.278;2023-03-16T05:55:14;100541.79;;;21.43;37.14
77975;BME280;67164;51.202;0.278;2023-03-16T05:57:38;100539.29;;;21.44;37.13
77975;BME280;67164;51.202;0.278;2023-03-16T06:00:06;100532.77;;;21.49;37.05
77975;BME280;67164;51.202;0.278;2023-03-16T06:02:30;100531.46;;;21.22;37.05
77975;BME280;67164;51.202;0.278;2023-03-16T06:04:56;100532.61;;;21.53;36.97
77975;BME280;67164;51.202;0.278;2023-03-16T06:07:21;100533.18;;;21.24;37.08
77975;BME280;67164;51.202;0.278;2023-03-16T06:09:47;100531.11;;;21.73;37.05
77975;BME280;67164;51.202;0.278;2023-03-16T06:12:13;100528.18;;;21.63;37.18
77975;BME280;67164;51.202;0.278;2023-03-16T06:14:39;100531.16;;;21.41;37.17
77975;BME280;67164;51.202;0.278;2023-03-16T06:17:05;100526.38;;;21.44;37.14
77975;BME280;67164;51.202;0.278;2023-03-16T06:19:31;100526.49;;;21.77;36.99
77975;BME280;67164;51.202;0.278;2023-03-16T06:21:56;100530.74;;;21.45;37.10
77975;BME280;67164;51.202;0.278;2023-03-16T06:24:23;100532.03;;;21.40;37.16
77975;BME280;67164;51.202;0.278;2023-03-16T06:26:48;100530.84;;;21.67;37.12
77975;BME280;67164;51.202;0.278;2023-03-16T06:29:14;100528.62;;;21.41;37.13
77975;BME280;67164;51.202;0.278;2023-03-16T06:31:40;100530.83;;;21.67;37.13
77975;BME280;67164;51.202;0.278;2023-03-16T06:34:05;100535.59;;;21.17;37.09
77975;BME280;67164;51.202;0.278;2023-03-16T06:36:31;100537.46;;;21.37;37.15
77975;BME280;67164;51.202;0.278;2023-03-16T06:38:57;100537.55;;;21.30;37.20
77975;BME280;67164;51.202;0.278;2023-03-16T06:41:23;100540.26;;;21.05;37.23
77975;BME280;67164;51.202;0.278;2023-03-16T06:43:49;100540.00;;;21.10;37.20
77975;BME280;67164;51.202;0.278;2023-03-16T06:46:15;100541.44;;;21.62;37.15
77975;BME280;67164;51.202;0.278;2023-03-16T06:48:40;100543.73;;;21.63;37.10
77975;BME280;67164;51.202;0.278;2023-03-16T06:51:06;100542.26;;;21.31;37.20
77975;BME280;67164;51.202;0.278;2023-03-16T06:53:32;100546.95;;;21.58;37.17
77975;BME280;67164;51.202;0.278;2023-03-16T06:55:58;100543.62;;;21.58;37.16
77975;BME280;67164;51.202;0.278;2023-03-16T06:58:24;100542.71;;;21.59;37.07
77975;BME280;67164;51.202;0.278;2023-03-16T07:00:49;100541.04;;;21.58;37.14
77975;BME280;67164;51.202;0.278;2023-03-16T07:03:14;100542.39;;;21.05;37.19
77975;BME280;67164;51.202;0.278;2023-03-16T07:05:40;100533.74;;;21.59;37.03
77975;BME280;67164;51.202;0.278;2023-03-16T07:08:06;100538.83;;;21.51;37.14
77975;BME280;67164;51.202;0.278;2023-03-16T07:10:32;100538.94;;;21.47;37.25
77975;BME280;67164;51.202;0.278;2023-03-16T07:12:57;100541.22;;;21.48;37.25
77975;BME280;67164;51.202;0.278;2023-03-16T07:15:23;100535.00;;;21.54;37.12
77975;BME280;67164;51.202;0.278;2023-03-16T07:17:49;100534.18;;;21.53;37.10
77975;BME280;67164;51.202;0.278;2023-03-16T07:20:16;100537.91;;;21.24;37.20
77975;BME280;67164;51.202;0.278;2023-03-16T07:22:41;100537.18;;;21.46;37.22
77975;BME280;67164;51.202;0.278;2023-03-16T07:25:07;100540.88;;;21.18;37.26
77975;BME280;67164;51.202;0.278;2023-03-16T07:27:32;100538.58;;;21.46;37.21
77975;BME280;67164;51.202;0.278;2023-03-16T07:29:58;100537.13;;;21.42;37.25
77975;BME280;67164;51.202;0.278;2023-03-16T07:32:24;100533.17;;;20.94;37.22
77975;BME280;67164;51.202;0.278;2023-03-16T07:34:50;100519.56;;;21.42;37.26
77975;BME280;67164;51.202;0.278;2023-03-16T07:37:16;100513.22;;;21.40;37.25
77975;BME280;67164;51.202;0.278;2023-03-16T07:39:41;100518.76;;;21.40;37.23
77975;BME280;67164;51.202;0.278;2023-03-16T07:42:07;100511.19;;;21.14;37.27
77975;BME280;67164;51.202;0.278;2023-03-16T07:44:33;100511.17;;;21.33;37.33
77975;BME280;67164;51.202;0.278;2023-03-16T07:46:59;100515.25;;;21.38;37.25
77975;BME280;67164;51.202;0.278;2023-03-16T07:49:25;100521.86;;;21.12;37.31
77975;BME280;67164;51.202;0.278;2023-03-16T07:51:50;100516.90;;;21.36;37.28
77975;BME280;67164;51.202;0.278;2023-03-16T07:54:17;100509.63;;;21.13;37.24
77975;BME280;67164;51.202;0.278;2023-03-16T07:56:42;100516.65;;;21.12;37.26
77975;BME280;67164;51.202;0.278;2023-03-16T07:59:08;100516.80;;;21.10;37.26
77975;BME280;67164;51.202;0.278;2023-03-16T08:01:34;100517.46;;;21.08;37.33
77975;BME280;67164;51.202;0.278;2023-03-16T08:04:00;100521.78;;;21.32;37.31
77975;BME280;67164;51.202;0.278;2023-03-16T08:06:25;100524.63;;;21.32;37.31
77975;BME280;67164;51.202;0.278;2023-03-16T08:08:51;100530.84;;;21.25;37.32
77975;BME280;67164;51.202;0.278;2023-03-16T08:11:17;100537.65;;;20.61;37.75
77975;BME280;67164;51.202;0.278;2023-03-16T08:13:43;100539.77;;;21.04;37.46
77975;BME280;67164;51.202;0.278;2023-03-16T08:16:09;100544.61;;;20.77;37.42
77975;BME280;67164;51.202;0.278;2023-03-16T08:18:35;100545.71;;;20.82;37.38
77975;BME280;67164;51.202;0.278;2023-03-16T08:21:00;100546.90;;;21.10;37.33
77975;BME280;67164;51.202;0.278;2023-03-16T08:23:26;100542.95;;;21.43;37.18
77975;BME280;67164;51.202;0.278;2023-03-16T08:25:53;100538.53;;;20.89;37.39
77975;BME280;67164;51.202;0.278;2023-03-16T08:28:18;100535.64;;;20.73;37.32
77975;BME280;67164;51.202;0.278;2023-03-16T08:30:45;100534.93;;;20.95;37.44
77975;BME280;67164;51.202;0.278;2023-03-16T08:33:09;100535.85;;;20.92;37.51
77975;BME280;67164;51.202;0.278;2023-03-16T08:35:35;100547.44;;;20.83;37.81
77975;BME280;67164;51.202;0.278;2023-03-16T08:38:01;100545.95;;;20.70;38.15
77975;BME280;67164;51.202;0.278;2023-03-16T08:40:27;100549.53;;;20.88;37.95
77975;BME280;67164;51.202;0.278;2023-03-16T08:42:53;100554.99;;;21.13;38.20
77975;BME280;67164;51.202;0.278;2023-03-16T08:45:18;100547.50;;;20.45;38.52
77975;BME280;67164;51.202;0.278;2023-03-16T08:47:44;100549.79;;;20.60;38.70
77975;BME280;67164;51.202;0.278;2023-03-16T08:50:11;100542.44;;;20.83;38.90
77975;BME280;67164;51.202;0.278;2023-03-16T08:52:36;100537.86;;;20.57;39.10
77975;BME280;67164;51.202;0.278;2023-03-16T08:55:03;100539.52;;;20.32;39.18
77975;BME280;67164;51.202;0.278;2023-03-16T08:57:27;100548.71;;;20.40;39.59
77975;BME280;67164;51.202;0.278;2023-03-16T08:59:53;100540.32;;;20.67;39.45
77975;BME280;67164;51.202;0.278;2023-03-16T09:02:19;100546.89;;;20.59;39.30
77975;BME280;67164;51.202;0.278;2023-03-16T09:04:45;100553.24;;;20.67;39.57
77975;BME280;67164;51.202;0.278;2023-03-16T09:07:10;100547.18;;;21.05;39.25
77975;BME280;67164;51.202;0.278;2023-03-16T09:09:37;100538.53;;;20.77;39.65
77975;BME280;67164;51.202;0.278;2023-03-16T09:12:03;100532.59;;;21.04;39.40
77975;BME280;67164;51.202;0.278;2023-03-16T09:14:28;100524.21;;;21.39;39.25
77975;BME280;67164;51.202;0.278;2023-03-16T09:16:54;100518.74;;;21.55;39.07
77975;BME280;67164;51.202;0.278;2023-03-16T09:19:20;100517.84;;;21.07;39.72
77975;BME280;67164;51.202;0.278;2023-03-16T09:21:45;100514.78;;;21.55;39.49
77975;BME280;67164;51.202;0.278;2023-03-16T09:24:11;100512.56;;;20.96;40.18
77975;BME280;67164;51.202;0.278;2023-03-16T09:26:37;100510.16;;;21.04;40.13
77975;BME280;67164;51.202;0.278;2023-03-16T09:29:03;100506.13;;;20.94;40.76
77975;BME280;67164;51.202;0.278;2023-03-16T09:31:29;100499.60;;;20.63;41.16
77975;BME280;67164;51.202;0.278;2023-03-16T09:33:54;100493.36;;;20.21;41.90
77975;BME280;67164;51.202;0.278;2023-03-16T09:36:20;100499.49;;;19.83;42.38
77975;BME280;67164;51.202;0.278;2023-03-16T09:38:46;100505.00;;;19.96;41.92
77975;BME280;67164;51.202;0.278;2023-03-16T09:41:25;100497.47;;;20.37;41.75
77975;BME280;67164;51.202;0.278;2023-03-16T09:43:50;100496.42;;;19.90;41.80
77975;BME280;67164;51.202;0.278;2023-03-16T09:46:08;100491.62;;;19.47;42.20
77975;BME280;67164;51.202;0.278;2023-03-16T09:48:32;100504.28;;;19.29;42.37
77975;BME280;67164;51.202;0.278;2023-03-16T09:50:55;100504.45;;;19.27;42.35
77975;BME280;67164;51.202;0.278;2023-03-16T09:53:23;100501.33;;;19.11;42.34
77975;BME280;67164;51.202;0.278;2023-03-16T09:55:49;100506.87;;;19.42;42.43
77975;BME280;67164;51.202;0.278;2023-03-16T09:58:19;100504.03;;;19.42;42.16
77975;BME280;67164;51.202;0.278;2023-03-16T10:00:43;100502.89;;;19.47;41.81
77975;BME280;67164;51.202;0.278;2023-03-16T10:03:14;100496.49;;;19.76;41.64
77975;BME280;67164;51.202;0.278;2023-03-16T10:05:30;100499.85;;;19.84;41.55
77975;BME280;67164;51.202;0.278;2023-03-16T10:08:05;100492.74;;;19.73;41.54
77975;BME280;67164;51.202;0.278;2023-03-16T10:10:34;100500.08;;;19.73;41.50
77975;BME280;67164;51.202;0.278;2023-03-16T10:12:50;100496.75;;;19.97;41.27
77975;BME280;67164;51.202;0.278;2023-03-16T10:15:15;100502.30;;;19.82;41.61
77975;BME280;67164;51.202;0.278;2023-03-16T10:17:41;100497.03;;;19.68;41.70
77975;BME280;67164;51.202;0.278;2023-03-16T10:20:10;100505.61;;;19.64;41.66
77975;BME280;67164;51.202;0.278;2023-03-16T10:22:32;100500.89;;;19.72;41.58
77975;BME280;67164;51.202;0.278;2023-03-16T10:25:03;100494.97;;;19.92;41.47
77975;BME280;67164;51.202;0.278;2023-03-16T10:27:27;100487.29;;;19.73;41.79
77975;BME280;67164;51.202;0.278;2023-03-16T10:29:48;100477.89;;;19.82;41.98
77975;BME280;67164;51.202;0.278;2023-03-16T10:32:16;100483.61;;;20.08;42.11
77975;BME280;67164;51.202;0.278;2023-03-16T10:34:40;100477.27;;;20.12;42.11
77975;BME280;67164;51.202;0.278;2023-03-16T10:37:08;100475.98;;;20.15;42.28
77975;BME280;67164;51.202;0.278;2023-03-16T10:39:36;100465.71;;;19.96;42.63
77975;BME280;67164;51.202;0.278;2023-03-16T10:41:58;100466.28;;;20.27;43.54
77975;BME280;67164;51.202;0.278;2023-03-16T10:44:25;100471.19;;;20.18;43.91
77975;BME280;67164;51.202;0.278;2023-03-16T10:46:58;100467.79;;;20.65;43.13
77975;BME280;67164;51.202;0.278;2023-03-16T10:49:21;100469.93;;;20.76;42.92
77975;BME280;67164;51.202;0.278;2023-03-16T10:51:42;100471.80;;;20.54;42.91
77975;BME280;67164;51.202;0.278;2023-03-16T10:54:08;100467.30;;;20.74;42.88
77975;BME280;67164;51.202;0.278;2023-03-16T10:56:33;100466.88;;;20.35;43.02
77975;BME280;67164;51.202;0.278;2023-03-16T10:58:58;100461.00;;;20.64;42.85
77975;BME280;67164;51.202;0.278;2023-03-16T11:01:26;100448.83;;;20.49;43.27
77975;BME280;67164;51.202;0.278;2023-03-16T11:03:51;100446.36;;;20.30;43.14
77975;BME280;67164;51.202;0.278;2023-03-16T11:06:19;100439.53;;;20.64;42.91
77975;BME280;67164;51.202;0.278;2023-03-16T11:08:41;100439.90;;;20.57;43.13
77975;BME280;67164;51.202;0.278;2023-03-16T11:11:09;100444.13;;;20.69;43.05
77975;BME280;67164;51.202;0.278;2023-03-16T11:13:34;100432.25;;;20.43;42.86
77975;BME280;67164;51.202;0.278;2023-03-16T11:16:02;100434.67;;;20.58;43.07
77975;BME280;67164;51.202;0.278;2023-03-16T11:18:29;100435.56;;;20.29;42.74
77975;BME280;67164;51.202;0.278;2023-03-16T11:20:50;100433.69;;;20.54;42.86
77975;BME280;67164;51.202;0.278;2023-03-16T11:23:17;100426.35;;;20.64;42.68
77975;BME280;67164;51.202;0.278;2023-03-16T11:25:45;100421.01;;;20.59;42.77
77975;BME280;67164;51.202;0.278;2023-03-16T11:28:12;100421.45;;;20.60;42.67
77975;BME280;67164;51.202;0.278;2023-03-16T11:30:35;100416.10;;;20.80;42.82
77975;BME280;67164;51.202;0.278;2023-03-16T11:32:59;100417.92;;;20.82;42.92
77975;BME280;67164;51.202;0.278;2023-03-16T11:35:34;100417.86;;;20.32;43.08
77975;BME280;67164;51.202;0.278;2023-03-16T11:38:03;100420.94;;;20.83;43.05
77975;BME280;67164;51.202;0.278;2023-03-16T11:40:29;100422.52;;;20.63;42.85
77975;BME280;67164;51.202;0.278;2023-03-16T11:42:50;100423.05;;;20.76;42.57
77975;BME280;67164;51.202;0.278;2023-03-16T11:45:17;100424.10;;;21.12;42.31
77975;BME280;67164;51.202;0.278;2023-03-16T11:47:49;100429.25;;;20.80;42.52
77975;BME280;67164;51.202;0.278;2023-03-16T11:50:09;100436.73;;;20.91;42.27
77975;BME280;67164;51.202;0.278;2023-03-16T11:52:36;100432.43;;;20.80;42.45
77975;BME280;67164;51.202;0.278;2023-03-16T11:55:00;100427.97;;;20.74;42.49
77975;BME280;67164;51.202;0.278;2023-03-16T11:57:29;100423.81;;;20.70;42.62
77975;BME280;67164;51.202;0.278;2023-03-16T11:59:55;100420.24;;;20.66;42.43
77975;BME280;67164;51.202;0.278;2023-03-16T12:02:25;100417.89;;;20.95;42.21
77975;BME280;67164;51.202;0.278;2023-03-16T12:04:43;100416.14;;;20.77;42.07
77975;BME280;67164;51.202;0.278;2023-03-16T12:07:11;100415.24;;;21.06;41.98
77975;BME280;67164;51.202;0.278;2023-03-16T12:11:55;100405.98;;;21.14;42.04
77975;BME280;67164;51.202;0.278;2023-03-16T12:14:22;100403.72;;;20.85;42.44
77975;BME280;67164;51.202;0.278;2023-03-16T12:16:47;100400.88;;;21.03;42.03
77975;BME280;67164;51.202;0.278;2023-03-16T12:19:15;100400.38;;;21.20;42.59
77975;BME280;67164;51.202;0.278;2023-03-16T12:21:38;100401.92;;;21.14;43.44
77975;BME280;67164;51.202;0.278;2023-03-16T12:24:03;100404.09;;;21.17;43.60
77975;BME280;67164;51.202;0.278;2023-03-16T12:26:29;100401.68;;;20.99;43.19
77975;BME280;67164;51.202;0.278;2023-03-16T12:28:53;100395.90;;;21.03;42.94
77975;BME280;67164;51.202;0.278;2023-03-16T12:31:19;100394.08;;;21.44;42.75
77975;BME280;67164;51.202;0.278;2023-03-16T12:34:00;100396.36;;;21.19;42.59
77975;BME280;67164;51.202;0.278;2023-03-16T12:38:41;100374.50;;;21.44;41.65
77975;BME280;67164;51.202;0.278;2023-03-16T12:41:06;100380.13;;;21.53;41.71
77975;BME280;67164;51.202;0.278;2023-03-16T12:43:37;100373.17;;;21.61;41.86
77975;BME280;67164;51.202;0.278;2023-03-16T12:45:57;100375.13;;;21.43;41.72